createdAt,value
2022-10-15T00:01:27.169Z,15.90
2022-10-15T00:03:17.514Z,16.00
2022-10-15T00:05:08.651Z,15.90
2022-10-15T00:07:00.328Z,16.00
2022-10-15T00:08:51.876Z,15.90
2022-10-15T00:10:42.601Z,15.90
2022-10-15T00:12:33.285Z,15.80
2022-10-15T00:14:23.795Z,15.80
2022-10-15T00:16:17.087Z,15.80
2022-10-15T00:18:07.635Z,15.90
2022-10-15T00:19:58.013Z,15.90
2022-10-15T00:21:48.176Z,15.90
2022-10-15T00:23:38.865Z,15.80
2022-10-15T00:25:30.544Z,15.80
2022-10-15T00:27:20.855Z,15.90
2022-10-15T00:29:11.332Z,16.00
2022-10-15T00:31:07.274Z,15.90
2022-10-15T00:32:57.800Z,15.90
2022-10-15T00:34:48.192Z,15.90
2022-10-15T00:36:38.608Z,16.00
2022-10-15T00:38:29.008Z,16.00
2022-10-15T00:40:19.605Z,16.00
2022-10-15T00:42:11.349Z,15.90
2022-10-15T00:44:02.807Z,15.90
2022-10-15T00:45:54.308Z,15.90
2022-10-15T00:47:47.709Z,15.90
2022-10-15T00:49:40.153Z,15.90
2022-10-15T00:51:33.836Z,16.00
2022-10-15T00:53:24.860Z,15.90
2022-10-15T00:55:18.745Z,15.90
2022-10-15T00:57:11.640Z,16.00
2022-10-15T00:59:02.347Z,16.00
2022-10-15T01:00:52.815Z,16.00
2022-10-15T01:02:44.072Z,16.00
2022-10-15T01:04:34.762Z,16.00
2022-10-15T01:06:26.524Z,16.00
2022-10-15T01:08:17.304Z,16.00
2022-10-15T01:10:09.379Z,16.00
2022-10-15T01:12:00.505Z,16.00
2022-10-15T01:13:58.089Z,16.00
2022-10-15T01:15:53.993Z,16.00
2022-10-15T01:17:47.327Z,15.90
2022-10-15T01:19:57.558Z,15.90
2022-10-15T01:21:52.212Z,15.90
2022-10-15T01:24:10.013Z,15.80
2022-10-15T01:26:08.081Z,15.80
2022-10-15T01:28:05.024Z,15.90
2022-10-15T01:30:24.142Z,15.80
2022-10-15T01:32:20.919Z,15.80
2022-10-15T01:36:14.534Z,15.80
2022-10-15T01:38:12.610Z,15.80
2022-10-15T01:40:06.946Z,15.80
2022-10-15T01:42:01.141Z,15.70
2022-10-15T01:43:58.349Z,15.80
2022-10-15T01:45:51.293Z,15.80
2022-10-15T01:47:46.755Z,15.70
2022-10-15T01:49:41.090Z,15.70
2022-10-15T01:51:33.770Z,15.70
2022-10-15T01:53:26.922Z,15.70
2022-10-15T01:55:19.461Z,15.70
2022-10-15T01:57:11.346Z,15.70
2022-10-15T01:59:02.310Z,15.70
2022-10-15T02:00:54.420Z,15.70
2022-10-15T02:02:46.208Z,15.60
2022-10-15T02:04:36.789Z,15.60
2022-10-15T02:06:30.888Z,15.60
2022-10-15T02:08:28.717Z,15.60
2022-10-15T02:10:22.673Z,15.60
2022-10-15T02:12:28.050Z,15.60
2022-10-15T02:14:25.896Z,15.60
2022-10-15T02:16:21.316Z,15.60
2022-10-15T02:18:17.140Z,15.50
2022-10-15T02:20:12.564Z,15.50
2022-10-15T02:22:08.053Z,15.40
2022-10-15T02:24:05.485Z,15.40
2022-10-15T02:25:56.261Z,15.50
2022-10-15T02:27:48.798Z,15.50
2022-10-15T02:29:40.435Z,15.50
2022-10-15T02:31:32.079Z,15.50
2022-10-15T02:33:24.021Z,15.50
2022-10-15T02:35:14.656Z,15.40
2022-10-15T02:37:06.025Z,15.40
2022-10-15T02:38:58.155Z,15.40
2022-10-15T02:40:48.601Z,15.30
2022-10-15T02:42:40.272Z,15.40
2022-10-15T02:44:30.882Z,15.40
2022-10-15T02:46:21.744Z,15.30
2022-10-15T02:48:12.108Z,15.30
2022-10-15T02:50:04.416Z,15.30
2022-10-15T02:51:55.024Z,15.30
2022-10-15T02:53:45.532Z,15.30
2022-10-15T02:55:35.831Z,15.30
2022-10-15T02:57:26.676Z,15.30
2022-10-15T02:59:17.432Z,15.30
2022-10-15T03:01:08.187Z,15.20
2022-10-15T03:02:58.856Z,15.20
2022-10-15T03:04:49.171Z,15.30
2022-10-15T03:06:41.245Z,15.30
2022-10-15T03:08:31.804Z,15.20
2022-10-15T03:10:22.154Z,15.20
2022-10-15T03:12:12.539Z,15.30
2022-10-15T03:14:03.138Z,15.20
2022-10-15T03:15:53.572Z,15.20
2022-10-15T03:17:44.245Z,15.10
2022-10-15T03:19:34.802Z,15.00
2022-10-15T03:21:25.214Z,15.00
2022-10-15T03:23:17.408Z,15.10
2022-10-15T03:25:08.433Z,15.10
2022-10-15T03:26:58.607Z,15.00
2022-10-15T03:28:48.897Z,15.00
2022-10-15T03:30:40.190Z,15.00
2022-10-15T03:32:33.026Z,15.00
2022-10-15T03:34:25.981Z,15.10
2022-10-15T03:36:16.368Z,15.00
2022-10-15T03:38:07.195Z,14.90
2022-10-15T03:39:59.007Z,15.00
2022-10-15T03:41:49.323Z,14.90
2022-10-15T03:43:42.655Z,14.90
2022-10-15T03:45:33.837Z,14.90
2022-10-15T03:47:24.334Z,14.90
2022-10-15T03:49:14.698Z,15.00
2022-10-15T03:51:05.491Z,15.00
2022-10-15T03:52:56.193Z,15.00
2022-10-15T03:54:46.543Z,15.00
2022-10-15T03:56:38.821Z,15.00
2022-10-15T03:58:28.995Z,15.00
2022-10-15T04:00:19.279Z,15.00
2022-10-15T04:02:09.787Z,15.00
2022-10-15T04:04:00.383Z,15.00
2022-10-15T04:05:53.809Z,15.00
2022-10-15T04:07:45.071Z,15.00
2022-10-15T04:09:35.732Z,15.10
2022-10-15T04:11:26.134Z,15.10
2022-10-15T04:13:18.599Z,15.10
2022-10-15T04:15:09.588Z,15.10
2022-10-15T04:17:00.182Z,15.20
2022-10-15T04:18:50.327Z,15.30
2022-10-15T04:20:41.060Z,15.30
2022-10-15T04:22:31.787Z,15.20
2022-10-15T04:24:23.229Z,15.30
2022-10-15T04:26:13.680Z,15.30
2022-10-15T04:28:04.314Z,15.40
2022-10-15T04:29:56.164Z,15.30
2022-10-15T04:31:46.771Z,15.30
2022-10-15T04:33:37.081Z,15.30
2022-10-15T04:35:27.433Z,15.30
2022-10-15T04:37:17.621Z,15.40
2022-10-15T04:39:09.768Z,15.30
2022-10-15T04:41:04.245Z,15.30
2022-10-15T04:42:54.860Z,15.30
2022-10-15T04:44:45.542Z,15.30
2022-10-15T04:46:37.443Z,15.30
2022-10-15T04:48:28.636Z,15.30
2022-10-15T04:50:18.836Z,15.30
2022-10-15T04:52:09.118Z,15.30
2022-10-15T04:53:59.416Z,15.30
2022-10-15T04:55:49.778Z,15.30
2022-10-15T04:57:40.144Z,15.40
2022-10-15T04:59:30.436Z,15.30
2022-10-15T05:01:20.933Z,15.30
2022-10-15T05:03:12.948Z,15.40
2022-10-15T05:05:04.214Z,15.40
2022-10-15T05:06:55.000Z,15.30
2022-10-15T05:08:47.619Z,15.30
2022-10-15T05:10:37.904Z,15.30
2022-10-15T05:12:28.354Z,15.30
2022-10-15T05:14:19.799Z,15.30
2022-10-15T05:16:13.044Z,15.30
2022-10-15T05:18:03.373Z,15.30
2022-10-15T05:19:55.133Z,15.20
2022-10-15T05:21:45.655Z,15.30
2022-10-15T05:23:36.248Z,15.30
2022-10-15T05:25:26.474Z,15.30
2022-10-15T05:27:16.807Z,15.20
2022-10-15T05:29:07.329Z,15.20
2022-10-15T05:31:03.068Z,15.20
2022-10-15T05:32:54.035Z,15.10
2022-10-15T05:34:44.720Z,15.10
2022-10-15T05:36:36.729Z,15.10
2022-10-15T05:38:27.496Z,15.10
2022-10-15T05:40:21.109Z,15.00
2022-10-15T05:42:12.666Z,15.00
2022-10-15T05:44:03.467Z,15.00
2022-10-15T05:45:54.399Z,15.00
2022-10-15T05:47:44.957Z,15.00
2022-10-15T05:49:35.500Z,14.90
2022-10-15T05:51:27.398Z,15.00
2022-10-15T05:53:19.100Z,15.00
2022-10-15T05:55:09.859Z,15.00
2022-10-15T05:57:00.317Z,15.00
2022-10-15T05:58:51.560Z,15.00
2022-10-15T06:00:41.996Z,15.00
2022-10-15T06:02:33.519Z,15.00
2022-10-15T06:04:24.159Z,15.00
2022-10-15T06:06:16.735Z,15.00
2022-10-15T06:08:07.026Z,15.10
2022-10-15T06:09:58.621Z,15.00
2022-10-15T06:11:48.921Z,15.10
2022-10-15T06:13:39.937Z,15.10
2022-10-15T06:15:30.926Z,15.10
2022-10-15T06:17:21.487Z,15.00
2022-10-15T06:19:12.301Z,15.00
2022-10-15T06:21:02.771Z,15.00
2022-10-15T06:22:57.210Z,15.00
2022-10-15T06:24:47.831Z,15.10
2022-10-15T06:26:39.776Z,15.10
2022-10-15T06:28:30.658Z,15.10
2022-10-15T06:30:21.328Z,15.10
2022-10-15T06:32:11.783Z,15.10
2022-10-15T06:34:02.136Z,15.10
2022-10-15T06:35:52.638Z,15.10
2022-10-15T06:37:43.304Z,15.20
2022-10-15T06:39:37.364Z,15.20
2022-10-15T06:41:27.931Z,15.20
2022-10-15T06:43:19.533Z,15.20
2022-10-15T06:45:10.902Z,15.30
2022-10-15T06:47:01.606Z,15.30
2022-10-15T06:48:51.851Z,15.30
2022-10-15T06:50:42.188Z,15.30
2022-10-15T06:52:32.647Z,15.40
2022-10-15T06:54:22.970Z,15.40
2022-10-15T06:56:13.359Z,15.40
2022-10-15T06:58:03.891Z,15.50
2022-10-15T06:59:56.269Z,15.50
2022-10-15T07:01:46.674Z,15.40
2022-10-15T07:03:37.223Z,15.50
2022-10-15T07:05:28.002Z,15.50
2022-10-15T07:07:19.059Z,15.50
2022-10-15T07:09:09.577Z,15.50
2022-10-15T07:11:01.625Z,15.50
2022-10-15T07:12:52.594Z,15.50
2022-10-15T07:14:43.095Z,15.60
2022-10-15T07:16:35.172Z,15.60
2022-10-15T07:18:25.938Z,15.50
2022-10-15T07:20:20.241Z,15.60
2022-10-15T07:22:13.858Z,15.50
2022-10-15T07:24:05.136Z,15.50
2022-10-15T07:25:57.479Z,15.60
2022-10-15T07:27:48.325Z,15.50
2022-10-15T07:29:38.486Z,15.50
2022-10-15T07:31:29.315Z,15.40
2022-10-15T07:33:21.051Z,15.50
2022-10-15T07:35:11.836Z,15.40
2022-10-15T07:37:02.387Z,15.40
2022-10-15T07:38:53.105Z,15.40
2022-10-15T07:40:43.741Z,15.30
2022-10-15T07:42:34.601Z,15.30
2022-10-15T07:44:25.456Z,15.30
2022-10-15T07:46:15.833Z,15.30
2022-10-15T07:48:06.629Z,15.30
2022-10-15T07:49:58.785Z,15.30
2022-10-15T07:51:49.303Z,15.30
2022-10-15T07:53:40.491Z,15.30
2022-10-15T07:55:30.929Z,15.30
2022-10-15T07:57:21.332Z,15.30
2022-10-15T07:59:11.833Z,15.40
2022-10-15T08:01:03.225Z,15.40
2022-10-15T08:02:53.930Z,15.40
2022-10-15T08:04:44.481Z,15.50
2022-10-15T08:06:36.233Z,15.50
2022-10-15T08:08:26.875Z,15.50
2022-10-15T08:10:17.461Z,15.60
2022-10-15T08:12:07.705Z,15.60
2022-10-15T08:13:58.089Z,15.60
2022-10-15T08:15:48.474Z,15.70
2022-10-15T08:17:38.863Z,15.70
2022-10-15T08:19:29.210Z,15.70
2022-10-15T08:21:19.661Z,15.70
2022-10-15T08:23:16.626Z,15.80
2022-10-15T08:25:07.740Z,15.90
2022-10-15T08:26:58.607Z,16.00
2022-10-15T08:28:50.169Z,16.00
2022-10-15T08:30:40.517Z,16.10
2022-10-15T08:32:30.976Z,16.20
2022-10-15T08:34:21.351Z,16.20
2022-10-15T08:36:11.868Z,16.20
2022-10-15T08:38:02.686Z,16.20
2022-10-15T08:39:54.871Z,16.30
2022-10-15T08:41:47.667Z,16.30
2022-10-15T08:43:40.194Z,16.40
2022-10-15T08:45:33.877Z,16.40
2022-10-15T08:47:30.049Z,16.40
2022-10-15T08:49:27.682Z,16.40
2022-10-15T08:51:20.787Z,16.40
2022-10-15T08:53:13.639Z,16.40
2022-10-15T08:55:06.075Z,16.50
2022-10-15T08:57:17.023Z,16.60
2022-10-15T08:59:14.594Z,16.60
2022-10-15T09:01:09.193Z,16.70
2022-10-15T09:03:05.582Z,16.70
2022-10-15T09:05:01.889Z,16.80
2022-10-15T09:06:55.577Z,16.70
2022-10-15T09:08:51.940Z,16.70
2022-10-15T09:10:49.628Z,16.60
2022-10-15T09:12:47.674Z,16.60
2022-10-15T09:14:40.451Z,16.60
2022-10-15T09:16:34.253Z,16.50
2022-10-15T09:18:27.106Z,16.50
2022-10-15T09:20:19.548Z,16.60
2022-10-15T09:22:13.366Z,16.50
2022-10-15T09:24:04.414Z,16.40
2022-10-15T09:26:00.740Z,16.40
2022-10-15T09:27:52.452Z,16.40
2022-10-15T09:29:48.289Z,16.40
2022-10-15T09:31:43.765Z,16.40
2022-10-15T09:33:38.181Z,16.30
2022-10-15T09:35:30.557Z,16.30
2022-10-15T09:37:22.813Z,16.40
2022-10-15T09:39:33.202Z,16.40
2022-10-15T09:41:34.619Z,16.40
2022-10-15T09:43:29.321Z,16.40
2022-10-15T09:45:20.235Z,16.50
2022-10-15T09:47:22.995Z,16.40
2022-10-15T09:49:15.902Z,16.50
2022-10-15T09:51:14.456Z,16.50
2022-10-15T09:53:12.676Z,16.50
2022-10-15T09:55:10.806Z,16.40
2022-10-15T09:57:02.429Z,16.40
2022-10-15T09:58:54.816Z,16.50
2022-10-15T10:01:00.773Z,16.40
2022-10-15T10:03:04.657Z,16.40
2022-10-15T10:04:55.766Z,16.40
2022-10-15T10:06:48.541Z,16.40
2022-10-15T10:08:40.468Z,16.40
2022-10-15T10:10:31.305Z,16.40
2022-10-15T10:12:26.361Z,16.30
2022-10-15T10:14:23.737Z,16.30
2022-10-15T10:16:16.321Z,16.30
2022-10-15T10:18:18.388Z,16.30
2022-10-15T10:20:19.947Z,16.30
2022-10-15T10:22:16.142Z,16.40
2022-10-15T10:24:26.960Z,16.40
2022-10-15T10:26:17.105Z,16.40
2022-10-15T10:28:19.313Z,16.40
2022-10-15T10:30:13.180Z,16.30
2022-10-15T10:32:19.511Z,16.30
2022-10-15T10:34:16.066Z,16.30
2022-10-15T10:36:18.951Z,16.40
2022-10-15T10:38:19.611Z,16.40
2022-10-15T10:40:23.188Z,16.40
2022-10-15T10:42:31.699Z,16.40
2022-10-15T10:44:29.225Z,16.40
2022-10-15T10:46:20.924Z,16.40
2022-10-15T10:48:23.253Z,16.40
2022-10-15T10:50:29.596Z,16.40
2022-10-15T10:52:26.088Z,16.40
2022-10-15T10:54:16.635Z,16.40
2022-10-15T10:56:08.445Z,16.40
2022-10-15T10:57:59.560Z,16.40
2022-10-15T10:59:52.721Z,16.40
2022-10-15T11:01:43.727Z,16.40
2022-10-15T11:03:36.475Z,16.50
2022-10-15T11:05:28.759Z,16.50
2022-10-15T11:07:23.362Z,16.50
2022-10-15T11:09:35.611Z,16.50
2022-10-15T11:11:31.024Z,16.50
2022-10-15T11:13:33.561Z,16.60
2022-10-15T11:15:31.509Z,16.60
2022-10-15T11:17:28.839Z,16.60
2022-10-15T11:19:54.683Z,16.60
2022-10-15T11:21:42.612Z,16.60
2022-10-15T11:23:44.235Z,16.60
2022-10-15T11:25:41.629Z,16.70
2022-10-15T11:27:45.782Z,16.80
2022-10-15T11:29:42.332Z,16.80
2022-10-15T11:31:49.278Z,16.80
2022-10-15T11:34:02.449Z,16.80
2022-10-15T11:36:01.197Z,16.90
2022-10-15T11:37:59.004Z,16.90
2022-10-15T11:40:00.063Z,16.90
2022-10-15T11:41:54.988Z,16.90
2022-10-15T11:44:18.137Z,16.90
2022-10-15T11:46:11.429Z,16.90
2022-10-15T11:48:07.322Z,16.90
2022-10-15T11:50:12.517Z,17.00
2022-10-15T11:52:16.666Z,17.10
2022-10-15T11:54:14.671Z,17.10
2022-10-15T11:56:06.991Z,17.20
2022-10-15T11:57:57.960Z,17.20
2022-10-15T11:59:52.057Z,17.30
2022-10-15T12:01:45.536Z,17.30
2022-10-15T12:03:44.042Z,17.30
2022-10-15T12:05:37.596Z,17.40
2022-10-15T12:07:32.814Z,17.50
2022-10-15T12:09:25.528Z,17.60
2022-10-15T12:11:24.369Z,17.60
2022-10-15T12:13:21.919Z,17.60
2022-10-15T12:15:21.001Z,17.70
2022-10-15T12:17:16.632Z,17.80
2022-10-15T12:19:15.655Z,17.90
2022-10-15T12:21:34.320Z,18.00
2022-10-15T12:23:27.233Z,18.00
2022-10-15T12:25:40.031Z,18.10
2022-10-15T12:27:32.806Z,18.10
2022-10-15T12:29:26.501Z,18.10
2022-10-15T12:31:16.985Z,18.10
2022-10-15T12:33:24.794Z,18.10
2022-10-15T12:35:37.546Z,18.10
2022-10-15T12:37:29.682Z,18.10
2022-10-15T12:39:47.580Z,18.10
2022-10-15T12:41:37.529Z,18.00
2022-10-15T12:43:27.992Z,18.00
2022-10-15T12:45:22.355Z,18.00
2022-10-15T12:47:12.699Z,18.00
2022-10-15T12:49:45.203Z,18.10
2022-10-15T12:51:36.787Z,18.10
2022-10-15T12:53:32.107Z,18.10
2022-10-15T12:55:26.149Z,18.10
2022-10-15T12:58:05.496Z,18.10
2022-10-15T12:59:57.031Z,18.20
2022-10-15T13:01:51.412Z,18.30
2022-10-15T13:03:43.696Z,18.30
2022-10-15T13:05:35.107Z,18.30
2022-10-15T13:07:27.430Z,18.40
2022-10-15T13:09:27.387Z,18.50
2022-10-15T13:11:21.342Z,18.50
2022-10-15T13:13:15.388Z,18.60
2022-10-15T13:15:07.068Z,18.60
2022-10-15T13:16:58.961Z,18.70
2022-10-15T13:18:52.348Z,18.70
2022-10-15T13:20:44.751Z,18.80
2022-10-15T13:22:36.479Z,19.00
2022-10-15T13:24:28.436Z,19.10
2022-10-15T13:26:21.312Z,19.10
2022-10-15T13:28:29.822Z,19.20
2022-10-15T13:30:20.249Z,19.20
2022-10-15T13:32:14.285Z,19.30
2022-10-15T13:34:10.697Z,19.20
2022-10-15T13:36:05.765Z,19.20
2022-10-15T13:37:57.702Z,19.20
2022-10-15T13:39:50.788Z,19.20
2022-10-15T13:41:41.381Z,19.40
2022-10-15T13:43:31.713Z,19.30
2022-10-15T13:45:22.039Z,19.30
2022-10-15T13:47:30.206Z,19.30
2022-10-15T13:49:22.256Z,19.30
2022-10-15T13:51:13.358Z,19.50
2022-10-15T13:53:12.424Z,19.40
2022-10-15T13:55:03.073Z,19.30
2022-10-15T13:56:55.190Z,19.30
2022-10-15T13:58:47.001Z,19.20
2022-10-15T14:00:37.636Z,19.30
2022-10-15T14:02:27.915Z,19.40
2022-10-15T14:04:19.820Z,19.40
2022-10-15T14:06:15.801Z,19.40
2022-10-15T14:08:15.375Z,19.30
2022-10-15T14:10:08.548Z,19.30
2022-10-15T14:12:03.117Z,19.10
2022-10-15T14:13:55.496Z,19.10
2022-10-15T14:15:51.279Z,19.10
2022-10-15T14:17:41.509Z,19.10
2022-10-15T14:19:32.455Z,19.10
2022-10-15T14:21:26.965Z,19.00
2022-10-15T14:23:22.592Z,19.00
2022-10-15T14:25:20.490Z,19.00
2022-10-15T14:27:15.054Z,19.10
2022-10-15T14:29:06.413Z,19.00
2022-10-15T14:30:57.969Z,19.00
2022-10-15T14:32:49.656Z,19.00
2022-10-15T14:34:40.505Z,19.00
2022-10-15T14:36:33.780Z,19.10
2022-10-15T14:38:26.064Z,19.00
2022-10-15T14:40:20.758Z,18.90
2022-10-15T14:42:27.691Z,18.90
2022-10-15T14:44:19.030Z,19.00
2022-10-15T14:46:14.218Z,19.00
2022-10-15T14:48:09.665Z,19.00
2022-10-15T14:50:01.242Z,19.00
2022-10-15T14:51:56.125Z,19.00
2022-10-15T14:53:47.899Z,19.00
2022-10-15T14:55:43.019Z,19.00
2022-10-15T14:57:36.264Z,19.00
2022-10-15T14:59:31.393Z,19.10
2022-10-15T15:01:22.188Z,19.20
2022-10-15T15:03:15.392Z,19.20
2022-10-15T15:05:19.425Z,19.20
2022-10-15T15:07:14.717Z,19.10
2022-10-15T15:09:06.196Z,19.10
2022-10-15T15:10:59.715Z,19.00
2022-10-15T15:12:51.456Z,19.00
2022-10-15T15:14:42.313Z,19.00
2022-10-15T15:16:35.247Z,18.90
2022-10-15T15:18:25.383Z,18.90
2022-10-15T15:20:16.099Z,18.90
2022-10-15T15:22:07.263Z,18.90
2022-10-15T15:23:58.015Z,19.00
2022-10-15T15:25:50.805Z,19.20
2022-10-15T15:27:41.619Z,19.30
2022-10-15T15:29:32.050Z,19.40
2022-10-15T15:31:22.489Z,19.40
2022-10-15T15:33:14.967Z,19.60
2022-10-15T15:35:18.564Z,19.60
2022-10-15T15:37:13.315Z,19.60
2022-10-15T15:39:03.864Z,19.60
2022-10-15T15:41:00.689Z,19.60
2022-10-15T15:42:51.343Z,19.50
2022-10-15T15:44:41.978Z,19.40
2022-10-15T15:46:32.499Z,19.30
2022-10-15T15:48:22.717Z,19.30
2022-10-15T15:50:13.306Z,19.30
2022-10-15T15:52:03.900Z,19.30
2022-10-15T15:53:54.867Z,19.20
2022-10-15T15:55:45.536Z,19.10
2022-10-15T15:57:37.703Z,19.10
2022-10-15T15:59:28.676Z,19.00
2022-10-15T16:01:20.145Z,19.00
2022-10-15T16:03:12.443Z,18.90
2022-10-15T16:05:02.713Z,18.90
2022-10-15T16:06:53.142Z,19.00
2022-10-15T16:08:43.554Z,19.10
2022-10-15T16:10:33.888Z,19.20
2022-10-15T16:12:24.169Z,19.20
2022-10-15T16:14:16.793Z,19.20
2022-10-15T16:16:07.803Z,18.90
2022-10-15T16:17:58.380Z,18.80
2022-10-15T16:19:49.018Z,18.70
2022-10-15T16:21:39.366Z,18.70
2022-10-15T16:23:29.787Z,18.80
2022-10-15T16:25:20.613Z,18.80
2022-10-15T16:27:11.123Z,18.70
2022-10-15T16:29:01.398Z,18.50
2022-10-15T16:30:53.132Z,18.40
2022-10-15T16:32:43.884Z,18.30
2022-10-15T16:34:34.592Z,18.30
2022-10-15T16:36:25.200Z,18.30
2022-10-15T16:38:15.689Z,18.20
2022-10-15T16:40:07.458Z,18.20
2022-10-15T16:41:57.921Z,18.20
2022-10-15T16:43:48.376Z,18.20
2022-10-15T16:45:38.985Z,18.20
2022-10-15T16:47:30.771Z,18.10
2022-10-15T16:49:21.227Z,18.00
2022-10-15T16:51:13.780Z,17.90
2022-10-15T16:53:04.146Z,18.00
2022-10-15T16:54:54.845Z,18.00
2022-10-15T16:56:49.081Z,18.10
2022-10-15T16:58:43.643Z,18.00
2022-10-15T17:00:34.799Z,18.10
2022-10-15T17:02:25.472Z,18.00
2022-10-15T17:04:17.526Z,17.90
2022-10-15T17:06:10.599Z,17.80
2022-10-15T17:08:01.070Z,17.80
2022-10-15T17:09:51.662Z,17.90
2022-10-15T17:11:43.236Z,17.90
2022-10-15T17:13:33.577Z,18.00
2022-10-15T17:15:24.632Z,18.00
2022-10-15T17:17:14.960Z,18.10
2022-10-15T17:19:07.044Z,18.10
2022-10-15T17:20:58.829Z,18.10
2022-10-15T17:22:49.464Z,18.20
2022-10-15T17:24:40.131Z,18.10
2022-10-15T17:26:31.984Z,18.10
2022-10-15T17:28:22.279Z,18.20
2022-10-15T17:30:12.444Z,18.10
2022-10-15T17:32:03.075Z,18.10
2022-10-15T17:33:55.372Z,18.10
2022-10-15T17:35:45.853Z,18.10
2022-10-15T17:37:37.866Z,18.30
2022-10-15T17:39:28.327Z,18.20
2022-10-15T17:41:20.203Z,18.20
2022-10-15T17:43:10.702Z,18.10
2022-10-15T17:45:00.912Z,18.20
2022-10-15T17:46:51.204Z,18.20
2022-10-15T17:48:42.406Z,18.10
2022-10-15T17:50:32.873Z,18.10
2022-10-15T17:52:23.474Z,18.10
2022-10-15T17:54:15.921Z,18.00
2022-10-15T17:56:11.392Z,18.10
2022-10-15T17:58:01.530Z,18.00
2022-10-15T17:59:52.092Z,18.00
2022-10-15T18:01:57.863Z,18.00
2022-10-15T18:03:49.335Z,18.00
2022-10-15T18:05:39.864Z,18.00
2022-10-15T18:07:30.859Z,18.00
2022-10-15T18:09:22.942Z,17.90
2022-10-15T18:11:15.841Z,18.00
2022-10-15T18:13:06.532Z,17.90
2022-10-15T18:14:56.745Z,18.00
2022-10-15T18:16:47.218Z,18.00
2022-10-15T18:18:37.458Z,18.00
2022-10-15T18:20:28.245Z,18.10
2022-10-15T18:22:18.642Z,18.00
2022-10-15T18:24:09.054Z,18.00
2022-10-15T18:26:05.082Z,17.90
2022-10-15T18:27:55.744Z,17.90
2022-10-15T18:29:46.225Z,17.90
2022-10-15T18:31:36.405Z,17.90
2022-10-15T18:33:27.216Z,17.90
2022-10-15T18:35:17.445Z,17.90
2022-10-15T18:37:07.649Z,17.90
2022-10-15T18:38:58.725Z,17.90
2022-10-15T18:40:49.285Z,17.90
2022-10-15T18:42:41.039Z,18.00
2022-10-15T18:44:31.713Z,18.00
2022-10-15T18:46:22.871Z,18.00
2022-10-15T18:48:13.221Z,18.00
2022-10-15T18:50:04.278Z,18.00
2022-10-15T18:51:54.857Z,17.90
2022-10-15T18:53:45.199Z,17.90
2022-10-15T18:55:35.792Z,17.90
2022-10-15T18:57:26.527Z,17.90
2022-10-15T18:59:18.501Z,17.90
2022-10-15T19:01:10.004Z,17.90
2022-10-15T19:03:00.473Z,17.90
2022-10-15T19:04:51.149Z,17.80
2022-10-15T19:06:43.457Z,17.80
2022-10-15T19:08:33.916Z,17.70
2022-10-15T19:10:24.183Z,17.90
2022-10-15T19:12:15.071Z,17.90
2022-10-15T19:14:06.413Z,17.80
2022-10-15T19:16:00.544Z,17.80
2022-10-15T19:17:51.508Z,17.80
2022-10-15T19:19:41.819Z,17.80
2022-10-15T19:21:32.525Z,17.80
2022-10-15T19:23:23.328Z,17.80
2022-10-15T19:25:13.880Z,17.80
2022-10-15T19:27:04.390Z,17.80
2022-10-15T19:28:55.097Z,17.80
2022-10-15T19:30:54.078Z,17.80
2022-10-15T19:32:47.850Z,17.80
2022-10-15T19:34:38.358Z,17.60
2022-10-15T19:36:31.309Z,17.60
2022-10-15T19:38:21.905Z,17.60
2022-10-15T19:40:12.749Z,17.60
2022-10-15T19:42:03.509Z,17.50
2022-10-15T19:43:54.555Z,17.50
2022-10-15T19:45:46.166Z,17.50
2022-10-15T19:47:36.432Z,17.40
2022-10-15T19:49:28.745Z,17.40
2022-10-15T19:51:19.356Z,17.40
2022-10-15T19:53:14.188Z,17.40
2022-10-15T19:55:05.581Z,17.30
2022-10-15T19:56:56.158Z,17.40
2022-10-15T19:58:48.240Z,17.30
2022-10-15T20:00:38.849Z,17.30
2022-10-15T20:02:29.085Z,17.20
2022-10-15T20:04:19.346Z,17.20
2022-10-15T20:06:11.420Z,17.20
2022-10-15T20:08:01.793Z,17.20
2022-10-15T20:09:52.058Z,17.20
2022-10-15T20:11:42.340Z,17.10
2022-10-15T20:13:32.929Z,17.10
2022-10-15T20:15:23.548Z,17.20
2022-10-15T20:17:13.945Z,17.20
2022-10-15T20:19:05.428Z,17.20
2022-10-15T20:20:58.383Z,17.20
2022-10-15T20:22:50.117Z,17.30
2022-10-15T20:24:44.289Z,17.40
2022-10-15T20:26:34.886Z,17.40
2022-10-15T20:28:25.590Z,17.40
2022-10-15T20:30:16.303Z,17.40
2022-10-15T20:32:16.999Z,17.40
2022-10-15T20:34:17.625Z,17.30
2022-10-15T20:36:14.455Z,17.20
2022-10-15T20:38:07.413Z,17.40
2022-10-15T20:39:58.267Z,17.50
2022-10-15T20:41:49.244Z,17.50
2022-10-15T20:43:40.686Z,17.40
2022-10-15T20:45:33.982Z,17.50
2022-10-15T20:47:24.533Z,17.50
2022-10-15T20:49:19.108Z,17.50
2022-10-15T20:51:10.742Z,17.50
2022-10-15T20:53:02.819Z,17.50
2022-10-15T20:54:55.801Z,17.60
2022-10-15T20:56:46.655Z,17.50
2022-10-15T20:58:37.266Z,17.50
2022-10-15T21:00:27.552Z,17.50
2022-10-15T21:02:18.031Z,17.50
2022-10-15T21:04:08.843Z,17.50
2022-10-15T21:05:59.930Z,17.50
2022-10-15T21:07:50.255Z,17.60
2022-10-15T21:09:41.056Z,17.60
2022-10-15T21:11:33.281Z,17.50
2022-10-15T21:13:23.492Z,17.50
2022-10-15T21:15:14.226Z,17.50
2022-10-15T21:17:08.319Z,17.50
2022-10-15T21:19:01.941Z,17.50
2022-10-15T21:20:52.477Z,17.50
2022-10-15T21:22:42.752Z,17.30
2022-10-15T21:24:34.038Z,17.40
2022-10-15T21:26:24.907Z,17.40
2022-10-15T21:28:20.138Z,17.40
2022-10-15T21:30:11.221Z,17.40
2022-10-15T21:32:01.924Z,17.50
2022-10-15T21:33:52.868Z,17.60
2022-10-15T21:35:43.256Z,17.60
2022-10-15T21:37:34.363Z,17.70
2022-10-15T21:39:25.101Z,17.60
2022-10-15T21:41:15.582Z,17.50
2022-10-15T21:43:06.082Z,17.50
2022-10-15T21:44:58.229Z,17.30
2022-10-15T21:46:48.492Z,17.30
2022-10-15T21:48:41.002Z,17.30
2022-10-15T21:50:31.565Z,17.30
2022-10-15T21:52:23.053Z,17.40
2022-10-15T21:54:14.596Z,17.40
2022-10-15T21:56:05.511Z,17.40
2022-10-15T21:57:55.926Z,17.20
2022-10-15T21:59:46.476Z,17.20
2022-10-15T22:01:38.256Z,17.20
2022-10-15T22:03:28.846Z,17.20
2022-10-15T22:05:19.582Z,17.20
2022-10-15T22:07:10.283Z,17.10
2022-10-15T22:09:01.591Z,17.10
2022-10-15T22:10:52.501Z,17.20
2022-10-15T22:12:42.982Z,17.10
2022-10-15T22:14:33.365Z,17.00
2022-10-15T22:16:24.497Z,17.10
2022-10-15T22:18:16.550Z,17.10
2022-10-15T22:20:08.320Z,17.20
2022-10-15T22:21:58.648Z,17.20
2022-10-15T22:23:50.821Z,17.20
2022-10-15T22:25:41.065Z,17.20
2022-10-15T22:27:31.331Z,17.10
2022-10-15T22:29:23.339Z,17.10
2022-10-15T22:31:14.052Z,17.00
2022-10-15T22:33:04.602Z,17.10
2022-10-15T22:34:56.539Z,16.90
2022-10-15T22:36:47.383Z,16.90
2022-10-15T22:38:37.753Z,16.80
2022-10-15T22:40:28.347Z,16.90
2022-10-15T22:42:18.633Z,16.90
2022-10-15T22:44:12.551Z,16.90
2022-10-15T22:46:03.193Z,16.90
2022-10-15T22:47:53.869Z,16.90
2022-10-15T22:49:44.511Z,17.00
2022-10-15T22:51:36.204Z,16.90
2022-10-15T22:53:27.305Z,17.00
2022-10-15T22:55:18.040Z,17.00
2022-10-15T22:57:08.403Z,16.90
2022-10-15T22:58:59.926Z,16.90
2022-10-15T23:00:50.539Z,16.90
2022-10-15T23:02:40.703Z,17.00
2022-10-15T23:04:31.550Z,17.00
2022-10-15T23:06:23.308Z,17.10
2022-10-15T23:08:15.062Z,17.00
2022-10-15T23:10:06.589Z,17.10
2022-10-15T23:11:57.297Z,17.00
2022-10-15T23:13:48.527Z,17.00
2022-10-15T23:15:38.881Z,17.00
2022-10-15T23:17:30.584Z,17.10
2022-10-15T23:19:22.536Z,17.10
2022-10-15T23:21:14.576Z,17.10
2022-10-15T23:23:05.556Z,17.10
2022-10-15T23:24:57.488Z,17.10
2022-10-15T23:26:48.477Z,17.10
2022-10-15T23:28:39.272Z,17.00
2022-10-15T23:30:29.946Z,17.00
2022-10-15T23:32:20.563Z,17.00
2022-10-15T23:34:14.695Z,17.00
2022-10-15T23:36:05.171Z,17.00
2022-10-15T23:37:56.039Z,17.00
2022-10-15T23:39:46.887Z,17.00
2022-10-15T23:41:38.931Z,17.10
2022-10-15T23:43:29.730Z,17.10
2022-10-15T23:45:20.085Z,17.00
2022-10-15T23:47:10.926Z,17.00
2022-10-15T23:49:01.427Z,17.10
2022-10-15T23:50:51.743Z,17.20
2022-10-15T23:52:41.993Z,17.10
2022-10-15T23:54:32.437Z,17.00
2022-10-15T23:56:22.944Z,17.00
2022-10-15T23:58:15.042Z,17.10
